Mentions légales

Ce site est édité par

CALM | Club Aérien Lille Métropole

Association Loi 1901 enregistrée à la Préfecture du Nord sous le n° W595022306

Route de l’Aéroport

Zone aviation de loisirs

59810 Lesquin


Tél. : 03 20 60 18 54


Email : info@calm.club

SIRET : 783 668 056 00014

Directeur de la publication

Olivier Ferlin, en qualité de Président

Hébergeur

OVH

2 Rue Kellermann

59100 Roubaix

 

La météo actuelle sur la plateforme de Lesquin LFQQ

TAF LFQQ
TAF LFQQ 220500Z 2206/2312 23008KT 9999 FEW013 TEMPO 2206/2208 BKN013 TEMPO 2300/2309 3000 -RA OVC013 PROB40 TEMPO 2302/2308 BKN008 PROB30 TEMPO 2309/2312 26015G25KT 4000 SHRA BKN020TCU

Venir nous rencontrer

Route de l’Aéroport

59810 Lesquin

 

Téléphone : 03 20 60 18 54

Du mardi au samedi de 10h30 à 12h30

et de 13h à 18h.

Suivre notre actualité